Time;durP1;ratioP1;P1;durP2;ratioP2;P2;SDS_P1;SDS_P2;PMS_P1;PMS_P2;Temp;Humidity;BMP_temperature;BMP_pressure;BME280_temperature;BME280_humidity;BME280_pressure;Samples;Min_cycle;Max_cycle;Signal;HPM_P1;HPM_P2
2021/05/27 00:01:47;;;;;;;1.20;1.00;;;10.50;98.00;;;;;;5047305;28;20451;-68
2021/05/27 00:04:14;;;;;;;1.40;1.10;;;10.40;98.00;;;;;;5049408;28;20482;-69
2021/05/27 00:06:40;;;;;;;1.20;0.90;;;10.40;98.00;;;;;;5048206;28;20462;-71
2021/05/27 00:09:07;;;;;;;1.20;1.00;;;10.40;98.00;;;;;;5050102;28;20495;-71
2021/05/27 00:11:34;;;;;;;1.20;0.97;;;10.50;98.00;;;;;;5046805;28;20532;-70
2021/05/27 00:14:00;;;;;;;1.20;0.90;;;10.60;98.00;;;;;;5049431;28;20457;-70
2021/05/27 00:16:27;;;;;;;1.20;1.00;;;10.50;98.00;;;;;;5047686;28;20527;-71
2021/05/27 00:18:53;;;;;;;1.20;1.00;;;10.60;98.00;;;;;;5050523;28;20454;-70
2021/05/27 00:21:20;;;;;;;1.20;1.00;;;10.60;98.00;;;;;;5047807;28;20458;-70
2021/05/27 00:23:47;;;;;;;1.20;1.00;;;10.60;98.00;;;;;;5050637;28;20553;-70
2021/05/27 00:26:14;;;;;;;1.20;1.00;;;10.50;98.00;;;;;;5048033;28;20530;-70
2021/05/27 00:28:41;;;;;;;1.20;1.10;;;10.50;98.00;;;;;;5050399;28;20841;-70
2021/05/27 00:31:08;;;;;;;1.20;1.00;;;10.50;98.00;;;;;;5047896;28;20461;-71
2021/05/27 00:33:35;;;;;;;1.20;1.00;;;10.50;98.00;;;;;;5050416;28;20459;-70
2021/05/27 00:36:01;;;;;;;1.20;1.00;;;10.60;98.00;;;;;;5047921;28;20516;-70
2021/05/27 00:38:28;;;;;;;1.20;0.90;;;10.60;98.00;;;;;;5050419;28;20503;-70
2021/05/27 00:40:55;;;;;;;1.30;1.20;;;10.60;98.00;;;;;;5047716;28;20462;-72
2021/05/27 00:43:21;;;;;;;1.20;1.00;;;10.60;98.00;;;;;;5050420;28;20461;-68
2021/05/27 00:45:49;;;;;;;1.20;0.90;;;10.60;98.00;;;;;;5047951;28;20514;-68
2021/05/27 00:50:56;;;;;;;1.20;1.10;;;10.60;98.00;;;;;;5047424;28;20470;-69
2021/05/27 00:53:23;;;;;;;1.20;1.00;;;10.50;98.00;;;;;;5050080;28;20519;-68
2021/05/27 00:55:49;;;;;;;1.20;1.00;;;10.50;98.00;;;;;;5047526;28;20488;-68
2021/05/27 00:58:18;;;;;;;1.20;1.00;;;10.50;98.00;;;;;;5050071;28;20489;-68
2021/05/27 01:00:45;;;;;;;1.20;1.00;;;10.50;98.00;;;;;;5047570;28;20492;-68
2021/05/27 01:03:12;;;;;;;1.20;1.00;;;10.40;98.00;;;;;;5050089;28;20858;-68
2021/05/27 01:05:39;;;;;;;1.20;0.90;;;10.40;98.00;;;;;;5047468;28;20493;-68
2021/05/27 01:08:06;;;;;;;1.20;0.97;;;10.40;98.00;;;;;;5050040;28;20960;-69
2021/05/27 01:10:33;;;;;;;1.20;0.97;;;10.40;98.00;;;;;;5047834;28;20499;-67
2021/05/27 01:13:00;;;;;;;1.20;1.00;;;10.40;98.00;;;;;;5049008;28;20489;-69
2021/05/27 01:15:28;;;;;;;1.20;0.90;;;10.40;98.00;;;;;;5047696;28;20520;-68
2021/05/27 01:17:55;;;;;;;1.20;1.00;;;10.50;98.00;;;;;;5050078;28;20535;-68
2021/05/27 01:20:22;;;;;;;1.20;1.00;;;10.50;98.00;;;;;;5049076;28;20490;-68
2021/05/27 01:22:50;;;;;;;1.20;1.00;;;10.40;98.00;;;;;;5053442;28;20459;-68
2021/05/27 01:25:16;;;;;;;1.20;1.10;;;10.30;98.00;;;;;;5050853;28;20461;-68
2021/05/27 01:27:43;;;;;;;1.20;1.00;;;10.30;98.00;;;;;;5053278;28;20552;-68
2021/05/27 01:30:11;;;;;;;1.20;0.93;;;10.40;98.00;;;;;;5050711;28;20496;-68
2021/05/27 01:32:38;;;;;;;1.20;0.90;;;10.40;98.00;;;;;;5053209;28;20454;-68
2021/05/27 01:35:07;;;;;;;1.20;1.00;;;10.50;98.00;;;;;;5051938;28;20521;-69
2021/05/27 01:37:36;;;;;;;1.20;1.00;;;10.60;98.00;;;;;;5053320;28;20988;-68
2021/05/27 01:40:05;;;;;;;1.20;0.90;;;10.60;98.00;;;;;;5052593;28;20465;-69
2021/05/27 01:42:32;;;;;;;1.20;0.90;;;10.60;98.00;;;;;;5052783;28;20472;-69
2021/05/27 01:44:58;;;;;;;1.20;1.00;;;10.60;98.00;;;;;;5051900;28;20495;-68
2021/05/27 01:47:25;;;;;;;1.20;0.90;;;10.50;98.00;;;;;;5051288;28;20608;-68
2021/05/27 01:49:51;;;;;;;1.20;1.00;;;10.40;98.00;;;;;;5052523;28;20463;-68
2021/05/27 01:52:18;;;;;;;1.20;0.90;;;10.30;98.00;;;;;;5051058;28;20454;-69
2021/05/27 01:54:44;;;;;;;1.20;0.90;;;10.20;98.00;;;;;;5051707;28;20544;-68
2021/05/27 01:57:12;;;;;;;1.20;0.97;;;10.20;98.00;;;;;;5050421;28;20551;-68
2021/05/27 01:59:38;;;;;;;1.20;1.00;;;10.30;98.00;;;;;;5051608;28;20512;-68
2021/05/27 02:02:04;;;;;;;1.20;0.90;;;10.30;98.00;;;;;;5050112;28;21021;-68
2021/05/27 02:04:31;;;;;;;1.20;1.00;;;10.20;98.00;;;;;;5052865;28;20964;-68
2021/05/27 02:06:57;;;;;;;1.20;1.10;;;10.20;98.00;;;;;;5049057;28;20512;-68
2021/05/27 02:09:24;;;;;;;1.67;1.00;;;10.30;98.00;;;;;;5052756;28;20512;-68
2021/05/27 02:11:50;;;;;;;1.20;1.00;;;10.30;98.00;;;;;;5049931;28;20924;-69
2021/05/27 02:14:19;;;;;;;1.20;1.00;;;10.20;98.00;;;;;;5052664;28;20454;-68
2021/05/27 02:16:46;;;;;;;1.20;1.00;;;10.20;98.00;;;;;;5049985;28;21070;-68
2021/05/27 02:19:13;;;;;;;1.40;1.10;;;10.30;98.00;;;;;;5052637;28;20468;-67
2021/05/27 02:21:40;;;;;;;1.23;1.10;;;10.30;98.00;;;;;;5049973;28;20506;-67
2021/05/27 02:24:08;;;;;;;1.20;1.00;;;10.30;98.00;;;;;;5052550;28;20541;-69
2021/05/27 02:26:35;;;;;;;1.43;1.13;;;10.10;98.00;;;;;;5049816;28;20458;-68
2021/05/27 02:29:01;;;;;;;1.80;1.10;;;10.10;98.00;;;;;;5052413;28;20457;-67
2021/05/27 02:31:29;;;;;;;1.20;1.00;;;10.10;98.00;;;;;;5049839;28;20460;-68
2021/05/27 02:33:56;;;;;;;1.20;0.90;;;10.20;98.00;;;;;;5052350;28;20500;-67
2021/05/27 02:36:22;;;;;;;1.70;1.33;;;10.20;98.00;;;;;;5049719;28;20518;-69
2021/05/27 02:38:49;;;;;;;1.20;0.90;;;10.30;98.00;;;;;;5052349;28;20462;-67
2021/05/27 02:41:16;;;;;;;1.20;1.00;;;10.30;98.00;;;;;;5049400;28;20560;-68
2021/05/27 02:43:43;;;;;;;1.20;1.00;;;10.30;98.00;;;;;;5051937;28;20461;-68
2021/05/27 02:46:10;;;;;;;1.43;1.20;;;10.30;98.00;;;;;;5046279;28;20488;-68
2021/05/27 02:48:37;;;;;;;1.20;1.00;;;10.30;98.00;;;;;;5051854;28;20815;-68
2021/05/27 02:51:05;;;;;;;1.20;0.90;;;10.30;98.00;;;;;;5049296;28;20495;-68
2021/05/27 02:53:34;;;;;;;1.20;1.00;;;10.30;98.00;;;;;;5051754;28;20521;-68
2021/05/27 02:56:00;;;;;;;1.20;1.00;;;10.40;98.00;;;;;;5049228;28;20489;-68
2021/05/27 02:58:29;;;;;;;1.20;0.90;;;10.20;98.00;;;;;;5051487;28;20829;-68
2021/05/27 03:00:56;;;;;;;1.30;1.13;;;10.30;98.00;;;;;;5048026;28;20454;-69
2021/05/27 03:03:22;;;;;;;1.20;0.90;;;10.20;98.00;;;;;;5051431;28;20944;-68
2021/05/27 03:05:50;;;;;;;1.20;1.00;;;10.20;98.00;;;;;;5030683;28;20459;-68
2021/05/27 03:08:19;;;;;;;1.20;1.00;;;10.20;98.00;;;;;;5051584;28;20464;-68
2021/05/27 03:10:46;;;;;;;1.20;1.00;;;10.30;98.00;;;;;;5047637;28;20450;-68
2021/05/27 03:13:13;;;;;;;1.20;1.00;;;10.40;98.00;;;;;;5051416;28;20482;-68
2021/05/27 03:15:39;;;;;;;1.20;1.00;;;10.40;98.00;;;;;;5047275;28;21018;-68
2021/05/27 03:18:11;;;;;;;1.20;1.00;;;10.60;98.00;;;;;;5051526;28;20490;-68
2021/05/27 03:20:38;;;;;;;1.30;1.10;;;10.60;98.00;;;;;;5048594;28;20491;-68
2021/05/27 03:23:07;;;;;;;1.20;1.00;;;10.50;98.00;;;;;;5051354;28;20460;-68
2021/05/27 03:25:34;;;;;;;1.37;1.20;;;10.60;98.00;;;;;;5047599;28;21146;-69
2021/05/27 03:28:00;;;;;;;1.20;1.00;;;10.60;98.00;;;;;;5049805;28;20463;-67
2021/05/27 03:30:28;;;;;;;1.60;1.13;;;10.60;98.00;;;;;;5048825;28;20994;-68
2021/05/27 03:32:54;;;;;;;1.20;1.00;;;10.70;98.00;;;;;;5051099;28;20451;-67
2021/05/27 03:35:21;;;;;;;1.73;1.27;;;10.60;98.00;;;;;;5048495;28;20525;-68
2021/05/27 03:37:47;;;;;;;1.27;0.97;;;10.70;98.00;;;;;;5051168;28;20464;-67
2021/05/27 03:40:17;;;;;;;1.20;1.00;;;10.70;98.00;;;;;;5049822;28;20465;-68
2021/05/27 03:42:45;;;;;;;1.30;1.20;;;10.60;98.00;;;;;;5049195;28;20824;-67
2021/05/27 03:45:14;;;;;;;1.20;1.00;;;10.50;98.00;;;;;;5051155;28;20841;-67
2021/05/27 03:47:41;;;;;;;1.20;0.90;;;10.60;98.00;;;;;;5049072;28;20463;-68
2021/05/27 03:50:10;;;;;;;1.63;1.30;;;10.60;98.00;;;;;;5050861;28;20560;-67
2021/05/27 03:52:37;;;;;;;1.20;0.90;;;10.60;98.00;;;;;;5048171;28;20482;-68
2021/05/27 03:55:05;;;;;;;1.20;0.90;;;10.50;98.00;;;;;;5050837;28;20614;-67
2021/05/27 03:57:33;;;;;;;1.30;1.00;;;10.50;98.00;;;;;;5048147;28;20496;-67
2021/05/27 04:02:45;;;;;;;1.20;1.00;;;10.60;98.00;;;;;;5048253;28;20917;-67
2021/05/27 04:07:53;;;;;;;1.20;1.00;;;10.60;98.00;;;;;;5038098;28;20486;-67
2021/05/27 04:10:20;;;;;;;1.20;0.90;;;10.50;98.00;;;;;;5050060;28;20951;-71
2021/05/27 04:12:47;;;;;;;1.47;1.30;;;10.40;98.00;;;;;;5049540;28;20509;-68
2021/05/27 04:15:22;;;;;;;1.20;1.00;;;10.40;98.00;;;;;;5050672;28;20849;-67
2021/05/27 04:17:53;;;;;;;1.20;0.90;;;10.40;98.00;;;;;;5050680;28;20453;-67
2021/05/27 04:20:20;;;;;;;1.20;1.00;;;10.40;98.00;;;;;;5049538;28;20490;-68
2021/05/27 04:22:48;;;;;;;1.70;1.07;;;10.50;98.00;;;;;;5050066;28;20827;-67
2021/05/27 04:25:16;;;;;;;1.20;0.90;;;10.50;98.00;;;;;;5049247;28;20513;-68
2021/05/27 04:27:43;;;;;;;1.20;1.00;;;10.40;98.00;;;;;;5048138;28;20503;-67
2021/05/27 04:30:13;;;;;;;1.20;1.00;;;10.40;98.00;;;;;;5050490;28;20880;-68
2021/05/27 04:32:55;;;;;;;1.20;0.90;;;10.40;98.00;;;;;;5047884;28;20470;-69
2021/05/27 04:35:23;;;;;;;1.20;1.00;;;10.50;98.00;;;;;;5049825;28;20487;-68
2021/05/27 04:37:50;;;;;;;1.20;1.00;;;10.40;98.00;;;;;;5050022;28;20683;-67
2021/05/27 04:40:17;;;;;;;1.20;1.00;;;10.40;98.00;;;;;;5050397;28;20544;-67
2021/05/27 04:42:44;;;;;;;1.20;1.10;;;10.40;98.00;;;;;;5046557;28;20873;-68
2021/05/27 04:45:13;;;;;;;1.20;1.00;;;10.40;98.00;;;;;;5050310;28;20493;-70
2021/05/27 04:47:39;;;;;;;1.20;0.90;;;10.50;98.00;;;;;;5048075;28;20452;-67
2021/05/27 04:50:07;;;;;;;1.33;1.07;;;10.40;98.00;;;;;;5050194;28;20879;-67
2021/05/27 04:52:34;;;;;;;1.20;0.90;;;10.40;98.00;;;;;;5047926;28;20492;-67
2021/05/27 04:55:00;;;;;;;1.20;1.00;;;10.40;98.00;;;;;;5052965;28;20538;-67
2021/05/27 04:57:27;;;;;;;1.30;1.10;;;10.20;98.00;;;;;;5051589;28;20457;-67
2021/05/27 04:59:54;;;;;;;1.20;0.90;;;10.10;98.00;;;;;;5054020;28;20499;-67
2021/05/27 05:02:21;;;;;;;1.20;0.90;;;10.10;98.00;;;;;;5051689;28;20472;-67
2021/05/27 05:04:48;;;;;;;1.20;0.90;;;10.00;98.00;;;;;;5054284;28;20484;-67
2021/05/27 05:07:15;;;;;;;2.37;1.30;;;9.90;98.00;;;;;;5051732;28;20530;-68
2021/05/27 05:09:43;;;;;;;1.20;1.00;;;9.90;98.00;;;;;;5054105;28;20457;-67
2021/05/27 05:12:10;;;;;;;1.20;1.00;;;9.90;98.00;;;;;;5051704;28;20461;-67
2021/05/27 05:14:37;;;;;;;1.20;0.90;;;9.90;98.00;;;;;;5053929;28;20486;-67
2021/05/27 05:17:03;;;;;;;1.20;0.90;;;10.10;98.00;;;;;;5051090;28;20541;-67
2021/05/27 05:19:31;;;;;;;1.20;1.00;;;10.20;98.00;;;;;;5053762;28;21070;-68
2021/05/27 05:21:58;;;;;;;1.20;1.00;;;10.30;98.00;;;;;;5051135;28;20989;-68
2021/05/27 05:24:27;;;;;;;1.20;1.00;;;10.50;98.00;;;;;;5053478;28;20535;-68
2021/05/27 05:26:54;;;;;;;2.50;1.20;;;10.50;98.00;;;;;;5050398;28;20561;-68
2021/05/27 05:29:22;;;;;;;1.20;0.93;;;10.60;98.00;;;;;;5053470;28;20544;-69
2021/05/27 05:31:49;;;;;;;1.20;1.00;;;10.70;98.00;;;;;;5050961;28;20496;-68
2021/05/27 05:34:18;;;;;;;1.20;0.90;;;10.80;98.00;;;;;;5053456;28;20935;-68
2021/05/27 05:36:45;;;;;;;1.20;1.00;;;10.90;98.00;;;;;;5049310;28;20483;-68
2021/05/27 05:39:12;;;;;;;1.20;1.00;;;11.00;98.00;;;;;;5053231;28;20460;-67
2021/05/27 05:41:40;;;;;;;1.20;1.00;;;11.10;98.00;;;;;;5050899;28;20483;-67
2021/05/27 05:44:07;;;;;;;1.20;1.00;;;11.20;98.00;;;;;;5053007;28;20452;-67
2021/05/27 05:46:34;;;;;;;1.20;1.00;;;11.30;98.00;;;;;;5049967;28;20820;-68
2021/05/27 05:49:01;;;;;;;1.20;0.90;;;11.20;98.00;;;;;;5053026;28;20452;-69
2021/05/27 05:51:28;;;;;;;1.20;0.90;;;11.10;98.00;;;;;;5050759;28;20467;-68
2021/05/27 05:53:58;;;;;;;1.20;1.00;;;11.10;98.00;;;;;;5052971;28;20568;-68
2021/05/27 05:56:24;;;;;;;1.20;0.90;;;11.20;98.00;;;;;;5049044;28;20520;-69
2021/05/27 05:58:51;;;;;;;1.60;1.30;;;11.20;98.00;;;;;;5052923;28;20492;-68
2021/05/27 06:01:18;;;;;;;1.20;1.00;;;11.30;98.00;;;;;;5050376;28;20453;-68
2021/05/27 06:03:44;;;;;;;1.20;1.00;;;11.40;98.00;;;;;;5052610;28;20962;-69
2021/05/27 06:06:12;;;;;;;1.40;1.20;;;11.40;98.00;;;;;;5049814;28;20490;-68
2021/05/27 06:08:38;;;;;;;1.20;1.07;;;11.60;98.00;;;;;;5052555;28;20463;-68
2021/05/27 06:11:06;;;;;;;1.20;1.00;;;11.80;98.00;;;;;;5050502;28;20801;-68
2021/05/27 06:13:32;;;;;;;1.30;1.03;;;11.80;98.00;;;;;;5052438;28;20529;-70
2021/05/27 06:15:59;;;;;;;1.20;0.90;;;11.80;98.00;;;;;;5049968;28;20492;-68
2021/05/27 06:18:26;;;;;;;1.30;1.10;;;11.80;98.00;;;;;;5052432;28;20456;-70
2021/05/27 06:20:53;;;;;;;1.20;1.00;;;11.80;98.00;;;;;;5050555;28;20917;-71
2021/05/27 06:23:21;;;;;;;1.20;0.90;;;11.90;98.00;;;;;;5052435;28;20474;-70
2021/05/27 06:25:47;;;;;;;1.20;1.00;;;11.80;98.00;;;;;;5050080;28;20460;-68
2021/05/27 06:28:15;;;;;;;1.20;1.00;;;11.80;98.00;;;;;;5052424;28;20494;-68
2021/05/27 06:30:41;;;;;;;1.20;1.00;;;11.80;98.00;;;;;;5049992;28;20871;-68
2021/05/27 06:33:09;;;;;;;1.50;1.33;;;11.80;98.00;;;;;;5052076;28;21000;-68
2021/05/27 06:35:36;;;;;;;1.20;0.90;;;12.10;98.00;;;;;;5050576;28;20485;-68
2021/05/27 06:38:04;;;;;;;1.20;1.00;;;12.20;98.00;;;;;;5051961;28;20485;-69
2021/05/27 06:40:31;;;;;;;1.20;1.10;;;12.20;98.00;;;;;;5051983;28;20606;-68
2021/05/27 06:42:58;;;;;;;1.27;1.17;;;12.00;98.00;;;;;;5050245;28;21016;-68
2021/05/27 06:45:26;;;;;;;1.20;0.90;;;11.90;98.00;;;;;;5051735;28;20494;-69
2021/05/27 06:47:54;;;;;;;1.20;1.00;;;11.80;98.00;;;;;;5050076;28;20496;-68
2021/05/27 06:50:33;;;;;;;1.50;1.10;;;11.80;98.00;;;;;;5051616;28;20463;-68
2021/05/27 06:53:01;;;;;;;1.20;0.97;;;11.80;98.00;;;;;;5050194;28;20457;-69
2021/05/27 06:55:28;;;;;;;1.30;1.07;;;11.90;98.00;;;;;;5051585;28;21009;-70
2021/05/27 06:57:54;;;;;;;1.40;1.30;;;12.10;98.00;;;;;;5049506;28;20486;-70
2021/05/27 07:00:22;;;;;;;1.20;1.00;;;12.30;98.00;;;;;;5051563;28;20481;-69
2021/05/27 07:02:51;;;;;;;1.50;1.37;;;12.50;98.00;;;;;;5049571;28;20515;-69
2021/05/27 07:05:18;;;;;;;1.40;1.17;;;12.50;98.00;;;;;;5051427;28;20453;-69
2021/05/27 07:07:45;;;;;;;1.20;1.00;;;12.50;98.00;;;;;;5048214;28;20841;-68
2021/05/27 07:10:14;;;;;;;1.20;1.00;;;12.60;98.00;;;;;;5050664;28;20457;-68
2021/05/27 07:12:47;;;;;;;1.20;1.00;;;12.50;98.00;;;;;;5047253;28;20994;-71
2021/05/27 07:15:15;;;;;;;1.20;1.00;;;12.70;98.00;;;;;;5051146;28;20454;-69
2021/05/27 07:17:41;;;;;;;1.40;1.30;;;12.90;98.00;;;;;;5047238;28;20519;-67
2021/05/27 07:20:10;;;;;;;1.20;1.00;;;12.90;98.00;;;;;;5051200;28;20501;-67
2021/05/27 07:22:36;;;;;;;1.20;1.00;;;13.00;98.00;;;;;;5048146;28;20493;-71
2021/05/27 07:25:04;;;;;;;1.20;1.00;;;13.20;98.00;;;;;;5049843;28;20997;-70
2021/05/27 07:27:31;;;;;;;1.20;1.00;;;13.20;98.00;;;;;;5048020;28;20518;-67
2021/05/27 07:29:57;;;;;;;1.50;1.20;;;13.20;98.00;;;;;;5050989;28;20471;-67
2021/05/27 07:32:24;;;;;;;1.20;1.00;;;13.40;98.00;;;;;;5048823;28;20493;-68
2021/05/27 07:34:51;;;;;;;1.20;1.00;;;13.50;98.00;;;;;;5050998;28;20467;-68
2021/05/27 07:37:19;;;;;;;1.30;1.00;;;13.50;98.00;;;;;;5046821;28;20522;-67
2021/05/27 07:39:46;;;;;;;1.20;1.10;;;13.60;98.00;;;;;;5050760;28;20948;-70
2021/05/27 07:42:13;;;;;;;1.20;1.00;;;13.60;98.00;;;;;;5048447;28;20465;-71
2021/05/27 07:44:39;;;;;;;1.20;1.00;;;13.50;98.00;;;;;;5050402;28;20544;-69
2021/05/27 07:47:06;;;;;;;1.30;1.23;;;13.20;98.00;;;;;;5047797;28;20826;-69
2021/05/27 07:49:32;;;;;;;1.20;1.07;;;13.20;98.00;;;;;;5050625;28;20468;-72
2021/05/27 07:51:59;;;;;;;1.30;1.10;;;13.10;98.00;;;;;;5048051;28;20847;-70
2021/05/27 07:54:27;;;;;;;1.20;0.97;;;13.10;98.00;;;;;;5050496;28;20497;-70
2021/05/27 07:56:54;;;;;;;1.40;1.07;;;13.20;98.00;;;;;;5047487;28;20565;-70
2021/05/27 07:59:21;;;;;;;1.20;1.00;;;13.60;98.00;;;;;;5050563;28;20490;-69
2021/05/27 08:01:47;;;;;;;1.20;1.00;;;13.80;97.30;;;;;;5047985;28;20460;-70
2021/05/27 08:04:14;;;;;;;1.20;1.00;;;14.10;97.70;;;;;;5051231;28;20847;-69
2021/05/27 08:06:41;;;;;;;1.20;0.90;;;14.30;96.90;;;;;;5049211;28;20485;-68
2021/05/27 08:09:11;;;;;;;1.20;1.10;;;14.30;96.30;;;;;;5050838;28;20498;-69
2021/05/27 08:11:40;;;;;;;1.20;1.00;;;14.00;95.00;;;;;;5048032;28;20460;-70
2021/05/27 08:14:06;;;;;;;1.20;1.10;;;14.00;96.60;;;;;;5050497;28;20453;-70
2021/05/27 08:16:33;;;;;;;1.30;1.10;;;13.90;97.60;;;;;;5047448;28;20878;-70
2021/05/27 08:19:00;;;;;;;1.20;1.00;;;14.00;95.40;;;;;;5050260;28;20488;-71
2021/05/27 08:21:28;;;;;;;1.20;1.00;;;14.30;98.00;;;;;;5047119;28;20493;-72
2021/05/27 08:23:55;;;;;;;1.20;1.00;;;14.60;95.40;;;;;;5050542;28;20825;-70
2021/05/27 08:26:21;;;;;;;1.20;1.00;;;14.90;94.90;;;;;;5047712;28;20886;-70
2021/05/27 08:28:49;;;;;;;1.20;1.00;;;15.10;93.20;;;;;;5050651;28;20985;-70
2021/05/27 08:31:15;;;;;;;1.53;1.20;;;15.20;93.10;;;;;;5052086;28;21000;-70
2021/05/27 08:33:42;;;;;;;1.47;1.13;;;15.10;93.20;;;;;;5054440;28;20976;-69
2021/05/27 08:36:09;;;;;;;1.30;1.00;;;15.10;92.80;;;;;;5052077;28;20493;-70
2021/05/27 08:38:36;;;;;;;1.20;1.00;;;15.00;93.40;;;;;;5054480;28;20494;-70
2021/05/27 08:41:02;;;;;;;1.20;1.00;;;14.90;91.20;;;;;;5052218;28;20951;-70
2021/05/27 08:43:29;;;;;;;1.20;1.17;;;14.60;91.00;;;;;;5054435;28;20467;-69
2021/05/27 08:45:58;;;;;;;1.20;1.00;;;14.50;92.30;;;;;;5052124;28;20462;-70
2021/05/27 08:48:24;;;;;;;1.20;1.10;;;14.30;94.10;;;;;;5054380;28;20543;-72
2021/05/27 08:50:52;;;;;;;1.20;1.00;;;14.40;94.60;;;;;;5052128;28;20464;-70
2021/05/27 08:53:20;;;;;;;1.20;1.00;;;14.50;93.50;;;;;;5054333;28;20466;-70
2021/05/27 08:55:48;;;;;;;1.20;1.00;;;14.80;93.60;;;;;;5053568;28;20486;-70
2021/05/27 08:58:15;;;;;;;1.67;1.00;;;15.10;93.60;;;;;;5053625;28;20451;-71
2021/05/27 09:00:44;;;;;;;1.70;1.30;;;15.30;91.80;;;;;;5054405;28;20498;-69
2021/05/27 09:03:13;;;;;;;1.20;1.13;;;15.20;89.40;;;;;;5052440;28;20459;-69
2021/05/27 09:05:40;;;;;;;1.20;1.00;;;15.10;90.60;;;;;;5053822;28;20458;-70
2021/05/27 09:08:08;;;;;;;1.20;1.00;;;14.70;90.30;;;;;;5051847;28;20497;-71
2021/05/27 09:10:42;;;;;;;1.20;1.10;;;14.70;90.60;;;;;;5053788;28;20459;-71
2021/05/27 09:13:10;;;;;;;1.20;1.00;;;15.10;91.90;;;;;;5051548;28;20464;-72
2021/05/27 09:15:36;;;;;;;1.40;1.20;;;15.60;92.50;;;;;;5053798;28;20512;-71
2021/05/27 09:18:03;;;;;;;1.20;1.10;;;15.80;87.80;;;;;;5051856;28;20467;-71
2021/05/27 09:20:32;;;;;;;1.30;1.10;;;16.00;93.40;;;;;;5053500;28;20973;-71
2021/05/27 09:23:12;;;;;;;1.20;1.20;;;16.30;88.80;;;;;;5051530;28;20784;-70
2021/05/27 09:25:40;;;;;;;1.50;1.10;;;16.40;87.60;;;;;;5053682;28;20969;-72
2021/05/27 09:28:07;;;;;;;1.20;1.00;;;16.10;87.50;;;;;;5051583;28;20464;-72
2021/05/27 09:30:42;;;;;;;1.20;1.10;;;16.20;92.10;;;;;;5053361;28;20499;-72
2021/05/27 09:33:09;;;;;;;1.20;1.00;;;16.50;91.30;;;;;;5051406;28;20468;-73
2021/05/27 09:35:36;;;;;;;1.30;1.10;;;17.00;88.80;;;;;;5053124;28;20472;-71
2021/05/27 09:38:03;;;;;;;1.20;1.00;;;17.10;82.30;;;;;;5051312;28;20457;-71
2021/05/27 09:40:32;;;;;;;1.77;1.20;;;17.10;85.70;;;;;;5052357;28;20482;-71
2021/05/27 09:42:59;;;;;;;1.20;1.07;;;17.10;85.30;;;;;;5049611;28;20464;-70
2021/05/27 09:45:28;;;;;;;1.20;1.00;;;16.80;83.40;;;;;;5052974;28;20462;-70
2021/05/27 09:47:55;;;;;;;1.30;1.13;;;16.50;84.30;;;;;;5050746;28;20971;-70
2021/05/27 09:50:31;;;;;;;1.20;1.00;;;16.00;85.30;;;;;;5052768;28;20467;-71
2021/05/27 09:53:16;;;;;;;1.30;1.10;;;15.60;86.20;;;;;;5050297;28;20554;-71
2021/05/27 09:55:43;;;;;;;1.20;1.00;;;15.30;86.90;;;;;;5052856;28;20456;-71
2021/05/27 09:58:10;;;;;;;1.20;1.00;;;15.10;86.80;;;;;;5050756;28;20817;-70
2021/05/27 10:00:38;;;;;;;1.20;1.00;;;14.90;87.20;;;;;;5052678;28;20557;-71
2021/05/27 10:03:36;;;;;;;1.20;1.00;;;14.80;88.20;;;;;;5050683;28;20519;-70
2021/05/27 10:06:05;;;;;;;1.50;1.10;;;14.50;90.20;;;;;;5027140;28;20457;-70
2021/05/27 10:08:51;;;;;;;1.20;1.00;;;14.70;90.60;;;;;;5052610;28;20456;-70
2021/05/27 10:11:19;;;;;;;1.93;1.07;;;14.80;89.80;;;;;;5050525;28;20513;-70
2021/05/27 10:13:46;;;;;;;1.30;1.10;;;14.70;88.40;;;;;;5051317;28;20467;-70
2021/05/27 10:16:14;;;;;;;1.37;1.00;;;14.70;89.60;;;;;;5049559;28;20821;-70
2021/05/27 10:18:41;;;;;;;1.20;0.90;;;14.70;90.00;;;;;;5052377;28;20819;-69
2021/05/27 10:21:09;;;;;;;1.93;1.40;;;14.70;90.40;;;;;;5050728;28;20467;-70
2021/05/27 10:23:38;;;;;;;1.60;1.20;;;15.00;91.70;;;;;;5052373;28;20521;-70
2021/05/27 10:26:09;;;;;;;1.20;1.00;;;15.20;89.50;;;;;;5050016;28;20462;-70
2021/05/27 10:28:38;;;;;;;1.20;1.00;;;15.50;90.00;;;;;;5051186;28;20991;-70
2021/05/27 10:31:05;;;;;;;1.20;1.10;;;15.60;87.50;;;;;;5049998;28;20903;-70
2021/05/27 10:33:39;;;;;;;1.20;1.10;;;15.40;88.00;;;;;;5050866;28;20493;-70
2021/05/27 10:36:08;;;;;;;1.20;1.10;;;15.30;89.40;;;;;;5050015;28;20476;-70
2021/05/27 10:38:50;;;;;;;1.30;1.00;;;15.30;89.20;;;;;;5052105;28;20454;-69
2021/05/27 10:41:19;;;;;;;1.60;1.20;;;15.30;90.80;;;;;;5050109;28;20460;-71
2021/05/27 10:44:09;;;;;;;1.20;1.00;;;15.30;87.00;;;;;;5052072;28;20464;-71
2021/05/27 10:47:19;;;;;;;1.20;1.00;;;15.10;87.00;;;;;;5044424;28;20656;-71
2021/05/27 10:49:58;;;;;;;2.33;1.13;;;14.90;87.90;;;;;;5051817;28;20460;-71
2021/05/27 10:52:51;;;;;;;1.20;1.00;;;14.80;89.90;;;;;;5049715;28;20469;-70
2021/05/27 10:55:59;;;;;;;3.10;1.30;;;14.70;91.60;;;;;;5052062;28;20459;-70
2021/05/27 10:59:12;;;;;;;1.80;1.67;;;14.60;90.80;;;;;;5051092;28;21018;-69
2021/05/27 11:02:01;;;;;;;1.20;1.17;;;14.40;91.60;;;;;;5049844;28;20482;-69
2021/05/27 11:04:42;;;;;;;1.20;1.00;;;14.50;92.10;;;;;;5050482;28;20468;-70
2021/05/27 11:07:20;;;;;;;1.20;1.10;;;14.50;92.80;;;;;;5049459;28;20450;-69
2021/05/27 11:09:48;;;;;;;1.20;1.10;;;14.60;92.10;;;;;;5051637;28;20512;-70
2021/05/27 11:12:23;;;;;;;2.33;1.30;;;14.60;93.20;;;;;;5049674;28;20464;-70
2021/05/27 11:15:16;;;;;;;1.20;1.07;;;14.80;93.60;;;;;;5051309;28;20517;-70
2021/05/27 11:18:07;;;;;;;1.30;1.13;;;14.90;93.00;;;;;;5048973;28;20500;-71
2021/05/27 11:20:35;;;;;;;1.40;1.10;;;15.00;92.20;;;;;;5051349;28;20947;-70
2021/05/27 11:23:20;;;;;;;1.20;1.00;;;15.10;94.40;;;;;;5049085;28;20463;-70
2021/05/27 11:25:47;;;;;;;1.50;1.20;;;15.20;91.50;;;;;;5050003;28;20479;-70
2021/05/27 11:28:36;;;;;;;1.40;1.13;;;15.20;92.40;;;;;;5049508;28;20467;-69
2021/05/27 11:31:05;;;;;;;1.20;1.00;;;15.00;91.00;;;;;;5050176;28;20545;-70
2021/05/27 11:33:43;;;;;;;1.50;1.20;;;15.10;92.80;;;;;;5050681;28;20456;-68
2021/05/27 11:36:22;;;;;;;1.20;1.00;;;15.20;90.10;;;;;;5047505;28;20510;-68
2021/05/27 11:38:49;;;;;;;1.20;1.07;;;15.50;92.30;;;;;;5050064;28;20456;-70
2021/05/27 11:41:18;;;;;;;1.43;1.30;;;15.70;90.50;;;;;;5048297;28;20461;-67
2021/05/27 11:43:48;;;;;;;1.60;1.17;;;15.70;89.70;;;;;;5050845;28;20453;-68
2021/05/27 11:46:16;;;;;;;1.20;1.00;;;15.70;89.50;;;;;;5047940;28;20998;-70
2021/05/27 11:51:33;;;;;;;1.20;1.07;;;15.50;90.50;;;;;;5046278;28;20499;-70
2021/05/27 11:54:02;;;;;;;1.20;1.10;;;15.40;90.50;;;;;;5049416;28;20457;-70
2021/05/27 11:56:37;;;;;;;1.20;0.90;;;15.20;90.10;;;;;;5048271;28;20837;-70
2021/05/27 11:59:05;;;;;;;1.90;1.53;;;15.30;90.90;;;;;;5050365;28;20483;-71
2021/05/27 12:01:38;;;;;;;1.20;1.00;;;15.60;91.70;;;;;;5048034;28;20464;-71
2021/05/27 12:04:15;;;;;;;1.30;1.03;;;16.20;92.70;;;;;;5048563;28;20456;-71
2021/05/27 12:07:00;;;;;;;1.20;1.00;;;16.90;86.00;;;;;;5048010;28;20815;-71
2021/05/27 12:09:30;;;;;;;1.40;1.10;;;16.90;87.40;;;;;;5048805;28;20461;-71
2021/05/27 12:11:58;;;;;;;1.43;1.10;;;16.80;86.70;;;;;;5048195;28;20962;-70
2021/05/27 12:14:25;;;;;;;1.20;1.17;;;16.50;86.10;;;;;;5050126;28;20477;-70
2021/05/27 12:16:54;;;;;;;1.20;1.10;;;16.10;86.80;;;;;;5047869;28;20546;-70
2021/05/27 12:19:22;;;;;;;1.63;1.30;;;16.00;89.50;;;;;;5049775;28;20458;-71
2021/05/27 12:21:57;;;;;;;1.77;1.20;;;16.00;89.40;;;;;;5048497;28;20821;-70
2021/05/27 12:24:28;;;;;;;1.20;1.00;;;15.90;90.60;;;;;;5050038;28;20479;-71
2021/05/27 12:26:56;;;;;;;1.40;1.37;;;15.70;90.50;;;;;;5048073;28;20483;-72
2021/05/27 12:29:24;;;;;;;1.20;1.00;;;15.70;90.10;;;;;;5049820;28;20540;-70
2021/05/27 12:31:51;;;;;;;1.20;1.00;;;15.70;89.60;;;;;;5048094;28;20512;-70
2021/05/27 12:34:19;;;;;;;1.30;1.23;;;15.70;90.50;;;;;;5049987;28;20502;-70
2021/05/27 12:36:55;;;;;;;1.20;1.10;;;15.70;89.50;;;;;;5048106;28;20492;-70
2021/05/27 12:39:30;;;;;;;1.20;1.00;;;15.70;88.00;;;;;;5049917;28;20825;-71
2021/05/27 12:41:57;;;;;;;1.43;1.20;;;15.70;87.50;;;;;;5046609;28;20466;-70
2021/05/27 12:44:37;;;;;;;1.20;1.00;;;15.70;88.50;;;;;;5049888;28;20487;-71
2021/05/27 12:47:16;;;;;;;1.20;1.00;;;15.80;89.40;;;;;;5047370;28;20926;-70
2021/05/27 12:49:43;;;;;;;1.20;1.00;;;16.20;86.30;;;;;;5049539;28;20460;-70
2021/05/27 12:52:10;;;;;;;1.40;1.20;;;16.20;87.00;;;;;;5047776;28;20511;-65
2021/05/27 12:54:37;;;;;;;1.20;1.03;;;16.20;86.40;;;;;;5050302;28;20504;-71
2021/05/27 12:57:08;;;;;;;1.20;1.10;;;16.30;87.60;;;;;;5048440;28;20517;-71
2021/05/27 12:59:35;;;;;;;5.00;2.03;;;16.20;86.50;;;;;;5050234;28;20872;-70
2021/05/27 13:02:04;;;;;;;1.20;0.90;;;16.20;88.30;;;;;;5047838;28;20532;-71
2021/05/27 13:04:34;;;;;;;1.20;1.00;;;16.00;88.50;;;;;;5050150;28;21001;-70
2021/05/27 13:07:08;;;;;;;1.20;1.00;;;16.00;88.30;;;;;;5048061;28;20460;-70
2021/05/27 13:09:46;;;;;;;1.20;1.00;;;16.00;88.50;;;;;;5050169;28;20460;-70